• Join FlightAware (Why Join?)
  • Login
  • US Flag 
11:42PM EDT


 

Airport Tracker/Info


-or-


 

Live Flight TrackerFlight Track Log ✈ TRS9348 ✈ 17-Jul-2013 ✈ KPOB - KATL

Flight Track Log - Related Links

Times and Time Zones

All times are in EDT time to prevent confusion due to time zone crossing. See the TRS9348 flight status page for this flight to view local times or setup timezone preferences in your user account.

Time Position Orientation Groundspeed Altitude Reporting Facility
EDT Latitude Longitude Course Direction KTS MPH feet Rate Location/Type
09:00PM 34.9680 -79.2420 270° West 364 419 15,300  Level FlightAware
09:01PM 34.9500 -79.4498 270° West  Level FlightAware Approximate
09:01PM 34.9630 -79.3430 267° West 383 441 18,200  Level FlightAware
09:02PM 34.9580 -79.4320 266° West 399 459 20,700 3,420 Climbing FlightAware
09:02PM 34.9530 -79.5330 267° West 416 479 23,000 2,880 Climbing FlightAware
09:03PM 34.9480 -79.6270 266° West 432 497 24,800 2,640 Climbing FlightAware
09:04PM 34.9430 -79.7270 267° West 447 514 26,600 2,640 Climbing FlightAware
09:04PM 34.9380 -79.8160 266° West 452 520 28,200 2,880 Climbing FlightAware
09:05PM 34.9310 -79.9330 266° West 450 518 30,500 3,180 Climbing FlightAware
09:06PM 34.9260 -80.0180 266° West 440 506 32,500 2,520 Climbing FlightAware
09:07PM 34.9190 -80.1380 266° West 442 509 34,000 960 Climbing FlightAware
09:07PM 34.9130 -80.2450 266° West 446 513 34,000  Level FlightAware
09:08PM 34.9070 -80.3490 266° West 446 513 34,000  Level FlightAware
09:09PM 34.9010 -80.4570 266° West 446 513 34,000  Level FlightAware
09:09PM 34.8960 -80.5360 266° West 447 514 34,000  Level FlightAware
09:10PM 34.8890 -80.6460 266° West 446 513 34,000  Level FlightAware
09:10PM 34.8840 -80.7320 266° West 445 512 34,000  Level FlightAware
09:12PM 34.8740 -80.8920 266° West 444 511 34,000  Level FlightAware
09:12PM 34.8670 -80.9990 265° West 445 512 34,000  Level FlightAware
09:13PM 34.8600 -81.1020 265° West 446 513 34,000  Level FlightAware
09:14PM 34.8530 -81.2100 266° West 448 516 34,000  Level FlightAware
09:14PM 34.8450 -81.3240 265° West 447 514 34,000  Level FlightAware
09:15PM 34.8400 -81.4040 266° West 446 513 34,000  Level FlightAware
09:16PM 34.8320 -81.5140 265° West 439 505 34,000  Level FlightAware
09:16PM 34.8250 -81.6120 265° West 439 505 34,000  Level FlightAware
09:17PM 34.8190 -81.7010 265° West 438 504 34,000  Level FlightAware
09:18PM 34.8130 -81.7890 265° West 440 506 34,000  Level FlightAware
09:18PM 34.8050 -81.9060 265° West 440 506 34,000 -120 Level FlightAware
09:19PM 34.7980 -81.9990 265° West 440 506 33,900 -600 Descending FlightAware
09:20PM 34.7900 -82.1030 265° West 443 510 33,200 -1,020 Descending FlightAware
09:20PM 34.7840 -82.1910 265° West 446 513 32,600 -1,020 Descending FlightAware
09:21PM 34.7750 -82.3120 265° West 444 511 31,800 -1,020 Descending FlightAware
09:22PM 34.7670 -82.4140 265° West 448 516 31,200 -960 Descending FlightAware
09:22PM 34.7600 -82.5000 264° West 452 520 30,600 -1,020 Descending FlightAware
09:23PM 34.7510 -82.6150 265° West 457 526 29,900 -1,020 Descending FlightAware
09:24PM 34.7370 -82.7790 264° West 462 532 28,800 -780 Descending FlightAware
09:25PM 34.7210 -82.7780 177° South 456 525 28,400 -1,020 Descending FlightAware
09:26PM 34.6220 -83.0030 242° Southwest 441 507 27,000 -1,260 Descending FlightAware
09:27PM 34.5760 -83.0980 240° Southwest 450 518 26,400 -960 Descending FlightAware
09:27PM 34.5310 -83.1890 239° Southwest 461 531 25,700 -1,020 Descending FlightAware
09:28PM 34.4790 -83.2680 231° Southwest 461 531 25,100 -1,500 Descending FlightAware
09:29PM 34.4170 -83.3600 231° Southwest 453 521 23,600 -1,860 Descending FlightAware
09:29PM 34.3670 -83.4320 230° Southwest 424 488 22,500 -2,400 Descending FlightAware
09:30PM 34.3110 -83.5150 231° Southwest 406 467 20,300 -2,400 Descending FlightAware
09:31PM 34.2650 -83.5830 231° Southwest 369 425 19,100 -1,620 Descending FlightAware
09:32PM 34.2220 -83.6460 230° Southwest 345 397 18,100 -1,860 Descending FlightAware
09:32PM 34.1860 -83.6990 231° Southwest 338 389 16,700 -2,280 Descending FlightAware
09:33PM 34.1410 -83.7650 231° Southwest 336 387 15,000 -2,340 Descending FlightAware
09:34PM 34.0940 -83.8320 230° Southwest 330 380 13,200 -2,400 Descending FlightAware
09:34PM 34.0530 -83.8810 225° Southwest 327 376 11,700 -2,340 Descending FlightAware
09:35PM 34.0130 -83.9240 222° Southwest 319 367 10,300 -2,220 Descending FlightAware
09:35PM 33.9820 -83.9560 221° Southwest 312 359 9,300 -1,980 Descending FlightAware
09:36PM 33.9650 -83.9750 223° Southwest 305 351 8,900 -840 Descending FlightAware
09:36PM 33.9370 -84.0060 223° Southwest 302 348 8,700 -240 Descending FlightAware
09:37PM 33.9120 -84.0320 221° Southwest 302 348 8,700 -120 Level FlightAware
09:37PM 33.8770 -84.0620 215° Southwest 296 341 8,600 -720 Descending FlightAware
09:37PM 33.8590 -84.0720 205° Southwest 294 338 8,200 -1,560 Descending FlightAware
09:38PM 33.8240 -84.0900 203° Southwest 280 322 7,500 -1,980 Descending FlightAware
09:38PM 33.7890 -84.1080 203° Southwest 284 327 6,300 -2,520 Descending FlightAware
09:39PM 33.7550 -84.1260 204° Southwest 293 337 5,200 -2,160 Descending FlightAware
09:39PM 33.7220 -84.1440 204° Southwest 293 337 4,400 -1,500 Descending FlightAware
09:40PM 33.6880 -84.1620 204° Southwest 262 302 3,800 -1,560 Descending FlightAware
09:40PM 33.6680 -84.1770 212° Southwest 257 296 3,100 -1,860 Descending FlightAware
09:40PM 33.6570 -84.1940 232° Southwest 245 282 2,700 -900 Descending FlightAware
09:41PM 33.6420 -84.2210 236° Southwest 245 282 2,500 -300 Descending FlightAware
09:41PM 33.6330 -84.2410 242° Southwest 223 257 2,500  Level FlightAware
09:41PM 33.6320 -84.2530 264° West 210 242 2,500  Level FlightAware
09:41PM 33.6320 -84.2790 270° West 203 234 2,500 -240 Level FlightAware
09:42PM 33.6320 -84.3130 270° West 207 238 2,300 -660 Descending FlightAware
09:42PM 33.6320 -84.3430 270° West 185 213 1,900 -960 Descending FlightAware
09:43PM 33.6320 -84.3670 270° West 156 180 1,500 -900 Descending FlightAware
09:43PM 33.6320 -84.3800 270° West 149 171 1,300 -660 Descending FlightAware
09:44PM 33.6320 -84.4100 270° West 135 155 900 -600 Descending FlightAware
09:45PM 33.6320 -84.4360 270° West 36 41 -1,260 Descending FlightAware
09:45PM 33.6330 -84.4390 292° West 27 31  Level FlightAware
09:45PM 33.6340 -84.4390 360° North 24 28  Level FlightAware
09:46PM 33.6340 -84.4420 270° West 15 17  Level FlightAware
09:47PM 33.6350 -84.4420 360° North 17 20  Level FlightAware
09:47PM 33.6360 -84.4420 360° North 18 21  Level FlightAware
09:48PM 33.6370 -84.4410 40° Northeast 28 32  Level FlightAware
09:48PM 33.6370 -84.4380 90° East 15 17  Level FlightAware
09:49PM 33.6370 -84.4360 90° East 16 18  Level FlightAware
09:49PM 33.6370 -84.4320 90° East 33 38  Level FlightAware
09:50PM 33.6370 -84.4310 90° East 24 28  Level FlightAware
09:50PM 33.6380 -84.4310 360° North 16 18  Level FlightAware